Aérodrome :
LOGIN :

S'inscrire | Disclaimer

   EN    FR    IT 

 










Légende :    VFR   VFR Marginal   IFR   IFR Intensif   IFR Très Intensif
Visi : 
Plafond : 
>= 8 km
>= 3000ft
5 à 8 km
1000 à 3000 ft
1500m à 5 km
500 à 1000 ft
800 à 1500m
200 à 500 ft
< 800m
< 200 ft
Symboles :   Orages  Brouillard  Fortes neiges  Fortes précipitations  Vent > 20 kt
SIGMETs :   Divers  Orages  Givrage  Turbulence  Onde Orograph.  Cendres Volcan.






- Altitude de l'aérodrome : 1766 ft


ETHL - Laupheim AB

DERNIER METAR :
  • 291144Z 03003KT 6000 BKN007 06/04 Q1013 GRN GRN BECMG BLU+

METARs EXPIRÉS :
  • 291130Z 02003KT 5000 BR BKN005 05/04 Q1013 YLO YLO
  • 291041Z 35003KT 1800 R27/3000U BR OVC003 04/03 Q1014 YLO YLO
  • 291020Z 02003KT 0800 R27/2000U FG OVC002 03/03 Q1015 AMB AMB
  • 290920Z 03003KT 0200 R27/0250N FG VV001 02/02 Q1015 RED RED BECMG YLO
  • 290820Z VRB01KT 0200 R27/0350N FG VV001 01/01 Q1016 RED RED BECMG YLO
  • 290720Z 05003KT 0100 R09/0250N FG VV000 01/00 Q1016 RED RED

TAF COR TAF ETHL
Valide du 29 à 12h jusqu'au 29 à 21h UTC


291143Z 2912/2921 03005KT 5000 BR BKN005
BECMG 2912/2914 08008KT 9999 NSW FEW020
TEMPO 2914/2919 06008KT 8000 NSW BKN020
BECMG 2919/2920 VRB02KT 4000 BR FEW003 BKN020



MET'MAP, la Météo Aéronautique d'un coup d'oeil ! - Copyright ORBIFLY Décembre 2007 - Disclaimer

ORBIFLY MET'MAP TEAM :

Programmation & Développement : Alexandra Zaïnal
Sur une idée originale de : Baudouin d'Aumeries
Soutien technique & logistique : Manuel Goepfert
Assistance : Marc-Olivier Méhu




SOURCES & CREDITS :

   NOAA